Latest Weather Observations for Swan Hill

IDN60801

Issued at 6:05 pm EDT Saturday 1 November 2014 (issued every 30 minutes, with the page automatically refreshed every 10 minutes)

About weather observations | Map of weather stations | Latest weather observations for NSW | Other Formats
Station Details ID: 077094 Name: SWAN HILL AERODROME Lat: -35.38 Lon: 143.54 Height: 71.0 m
Data from the previous 72 hours. | See also: Recent months at Swan Hill
Date/Time
EDT
Temp
°C
App
Temp
°C
Dew
Point
Rel
Hum
%
Delta-T
°C
Wind Press
QNH
hPa
Press
MSL
hPa
Rain
since 9 am
mm
Dir
 
Spd
km/h
Gust
km/h
Spd
kts
Gust
kts
01/06:00pm 18.4 8.0 -9.3 14 10.0 SW 39 54 21 29 1013.2 1013.0 0.0
01/05:41pm 18.6 8.0 -6.9 17 9.7 SW 41 59 22 32 1012.9 - 0.0
01/05:30pm 18.8 7.4 -9.4 14 10.2 WSW 44 59 24 32 1012.6 - 0.0
01/05:06pm 19.9 8.9 -5.6 17 10.1 WSW 44 67 24 36 1012.2 - 0.0
01/05:00pm 19.2 8.2 -5.4 18 9.7 SW 44 59 24 32 1012.2 - 0.0
01/04:30pm 19.4 7.9 -7.0 16 10.1 SW 46 65 25 35 1011.7 - 0.0
01/04:04pm 19.3 8.3 -5.6 18 9.8 SW 44 65 24 35 1011.5 - 0.0
01/04:00pm 19.3 7.8 -6.1 17 9.9 SW 46 61 25 33 1011.4 - 0.0
01/03:39pm 21.0 9.6 -5.9 16 10.7 WSW 46 65 25 35 1011.3 - 0.0
01/03:30pm 19.8 7.9 -7.0 15 10.3 WSW 48 65 26 35 1011.5 - 0.0
01/03:00pm 19.7 8.4 -4.1 19 9.7 WSW 46 65 25 35 1011.4 1011.1 0.0
01/02:30pm 20.2 8.2 -4.3 19 10.0 WSW 50 69 27 37 1010.8 - 0.0
01/02:00pm 19.5 9.1 -1.9 23 9.1 WSW 43 61 23 33 1010.7 - 0.0
01/01:30pm 18.4 7.3 -0.2 28 8.1 WSW 48 67 26 36 1010.7 - 0.0
01/01:00pm 18.7 8.2 1.4 31 7.8 WSW 46 65 25 35 1010.4 - 0.0
01/12:30pm 17.5 7.5 1.1 33 7.3 SW 43 63 23 34 1010.2 - 0.0
01/12:00pm 17.9 7.3 0.7 31 7.6 SW 46 65 25 35 1010.1 1010.0 0.0
01/11:35am 18.7 8.3 2.1 33 7.6 WSW 46 65 25 35 1009.9 - 0.0
01/11:30am 18.8 8.1 2.3 33 7.6 WSW 48 65 26 35 1010.0 - 0.0
01/11:05am 17.8 6.8 0.6 31 7.6 WSW 48 69 26 37 1009.6 - 0.0
01/11:00am 18.2 7.6 0.9 31 7.7 WSW 46 57 25 31 1009.7 - 0.0
01/10:30am 17.6 8.7 7.8 52 5.0 WSW 44 61 24 33 1009.3 - 0.0
01/10:00am 15.9 7.7 8.2 60 3.9 SW 41 54 22 29 1008.6 - 0.0
01/09:32am 15.2 7.9 10.3 72 2.6 SW 39 57 21 31 1008.1 - 0.0
01/09:30am 15.0 7.2 9.8 71 2.7 SW 41 57 22 31 1008.0 - 0.0
01/09:00am 14.4 8.1 12.4 88 1.1 WSW 37 56 20 30 1007.4 1007.4 1.4
01/08:59am 14.5 8.6 12.5 88 1.1 WSW 35 56 19 30 1007.3 - 1.4
01/08:30am 14.8 11.1 12.6 87 1.2 W 24 30 13 16 1007.0 - 1.4
01/08:00am 14.0 9.8 12.5 91 0.8 WSW 26 33 14 18 1006.4 - 1.4
01/07:30am 14.0 9.4 12.4 90 0.9 WSW 28 35 15 19 1005.4 - 1.2
01/07:00am 14.1 10.0 12.8 92 0.7 WSW 26 35 14 19 1004.8 - 1.2
01/06:30am 14.2 9.8 12.9 92 0.7 WSW 28 43 15 23 1004.3 - 1.0
01/06:00am 14.5 9.1 12.9 90 0.9 WSW 33 44 18 24 1003.7 1003.6 1.0
01/05:30am 15.2 11.4 12.5 84 1.5 W 24 30 13 16 1004.0 - 0.8
01/05:00am 18.1 13.5 8.2 52 5.1 W 22 28 12 15 1003.3 - 0.0
01/04:30am 18.5 15.0 7.1 47 5.8 WSW 15 19 8 10 1002.2 - 0.0
01/04:00am 18.8 15.2 6.7 45 6.1 W 15 19 8 10 1002.5 - 0.0
01/03:30am 19.2 15.2 6.8 44 6.2 WSW 17 22 9 12 1002.3 - 0.0
01/03:00am 19.7 13.8 5.9 40 6.9 SW 26 39 14 21 1001.5 1001.4 0.0
01/02:41am 19.9 13.1 5.1 38 7.2 SW 30 48 16 26 1000.9 - 0.0
01/02:30am 20.5 12.3 4.9 36 7.6 SW 37 54 20 29 1001.1 - 0.0
01/02:04am 21.5 14.3 7.8 41 7.1 SW 35 54 19 29 1000.9 - 0.0
01/02:00am 21.6 14.0 7.6 40 7.3 SW 37 50 20 27 1000.4 - 0.0
01/01:45am 22.8 14.8 5.7 33 8.6 WSW 37 57 20 31 1000.5 - 0.0
01/01:30am 23.8 17.3 4.7 29 9.5 SW 28 37 15 20 1000.3 - 0.0
01/01:00am 25.1 15.9 1.4 21 11.2 WSW 39 52 21 28 1000.3 - 0.0
01/12:32am 26.8 17.2 -1.6 15 12.9 WSW 39 57 21 31 999.5 - 0.0
01/12:30am 27.2 19.2 -2.5 14 13.3 W 30 57 16 31 999.3 - 0.0
01/12:29am 27.5 19.8 -3.1 13 13.6 WNW 28 57 15 31 999.3 - 0.0
01/12:16am 26.1 18.4 -3.0 14 12.8 W 28 43 15 23 998.9 - 0.0
01/12:00am 27.4 21.1 -4.4 12 13.9 N 20 24 11 13 997.7 997.6 0.0
 
Date/Time
EDT
Temp
°C
App
Temp
°C
Dew
Point
Rel
Hum
%
Delta-T
°C
Wind Press
QNH
hPa
Press
MSL
hPa
Rain
since 9 am
mm
Dir
 
Spd
km/h
Gust
km/h
Spd
kts
Gust
kts
31/11:30pm 27.3 21.7 -2.6 14 13.4 N 17 20 9 11 998.1 - 0.0
31/11:00pm 26.7 21.2 -2.3 15 13.0 N 17 20 9 11 998.6 - 0.0
31/10:30pm 27.0 21.6 -1.6 15 13.0 N 17 19 9 10 999.0 - 0.0
31/10:00pm 26.7 21.3 -1.4 16 12.8 N 17 19 9 10 999.4 - 0.0
31/09:30pm 25.5 20.8 0.8 20 11.6 N 15 15 8 8 999.4 - 0.0
31/09:00pm 27.3 22.9 0.4 17 12.8 NNW 13 20 7 11 999.4 999.4 0.0
31/08:30pm 27.2 24.0 1.0 18 12.5 N 7 7 4 4 999.3 - 0.0
31/08:00pm 29.0 26.2 3.0 19 13.0 NNW 7 11 4 6 999.4 - 0.0
31/07:30pm 31.1 27.8 0.4 14 14.9 NNW 7 9 4 5 999.6 - 0.0
31/07:00pm 33.1 28.1 -4.7 8 17.1 NNW 13 15 7 8 999.7 - 0.0
31/06:30pm 32.8 26.7 -4.0 9 16.8 NW 19 24 10 13 1000.1 - 0.0
31/06:00pm 33.8 24.8 -8.0 6 18.1 NW 32 39 17 21 1000.3 1000.3 0.0
31/05:30pm 34.0 24.8 -7.9 6 18.1 NW 33 43 18 23 1000.6 - 0.0
31/05:24pm 34.1 24.9 -8.2 6 18.2 NNW 33 37 18 20 1000.6 - 0.0
31/05:03pm 35.2 25.0 -11.1 5 19.2 WNW 37 61 20 33 1000.6 - 0.0
31/05:00pm 35.3 25.5 -11.5 4 19.3 WNW 35 52 19 28 1000.7 - 0.0
31/04:46pm 36.7 26.1 -11.3 4 20.1 WNW 39 59 21 32 1000.4 - 0.0
31/04:30pm 35.5 25.7 -11.4 4 19.4 NW 35 44 19 24 1000.9 - 0.0
31/04:00pm 35.9 26.6 -9.3 5 19.4 NNW 33 61 18 33 1001.2 - 0.0
31/03:32pm 34.8 25.6 -8.2 6 18.6 NW 33 52 18 28 1001.8 - 0.0
31/03:30pm 35.8 26.2 -8.2 5 19.2 NW 35 52 19 28 1001.9 - 0.0
31/03:03pm 36.4 27.3 -7.1 6 19.4 NW 33 52 18 28 1002.6 - 0.0
31/03:00pm 35.9 26.8 -7.8 6 19.3 WNW 33 52 18 28 1002.6 1002.7 0.0
31/02:54pm 35.7 26.5 -8.8 5 19.2 NW 33 52 18 28 1002.7 - 0.0
31/02:30pm 33.7 25.7 -5.8 7 17.6 NNW 28 43 15 23 1003.2 - 0.0
31/02:00pm 35.1 26.4 -5.6 7 18.4 N 32 43 17 23 1003.8 - 0.0
31/01:47pm 34.3 26.3 -6.1 7 18.0 NNW 28 46 15 25 1003.9 - 0.0
31/01:30pm 32.9 26.2 -3.9 9 16.8 N 22 37 12 20 1004.6 - 0.0
31/01:16pm 32.9 25.0 -4.4 9 16.9 N 28 50 15 27 1005.1 - 0.0
31/01:00pm 32.0 26.1 -1.9 11 15.9 N 19 30 10 16 1005.5 - 0.0
31/12:30pm 31.1 25.2 -1.1 12 15.2 NNE 20 32 11 17 1006.2 - 0.0
31/12:00pm 29.2 23.4 -1.6 13 14.3 NNE 19 22 10 12 1007.0 1007.0 0.0
31/11:30am 27.3 22.4 -0.2 16 12.9 NNE 15 20 8 11 1007.7 - 0.0
31/11:00am 26.8 21.4 -1.4 15 12.9 NNE 17 24 9 13 1008.2 - 0.0
31/10:30am 25.4 21.6 1.9 21 11.3 NE 11 19 6 10 1008.6 - 0.0
31/10:00am 22.7 20.0 3.9 29 9.2 ENE 7 11 4 6 1008.9 - 0.0
31/09:30am 20.4 17.8 4.0 34 7.9 ENE 7 13 4 7 1009.4 - 0.0
31/09:00am 19.5 16.3 3.2 34 7.7 ENE 9 13 5 7 1009.6 1009.6 0.0
31/08:30am 18.2 14.3 3.5 37 6.9 ENE 13 17 7 9 1009.8 - 0.0
31/08:00am 14.9 12.5 5.2 52 4.6 S 7 9 4 5 1010.1 - 0.0
31/07:30am 12.1 9.1 2.2 50 4.3 S 7 9 4 5 1010.1 - 0.0
31/07:00am 10.5 7.3 0.8 51 4.0 S 7 9 4 5 1010.1 - 0.0
31/06:30am 9.8 6.1 0.2 51 3.9 S 9 13 5 7 1010.0 - 0.0
31/06:00am 9.2 6.1 0.3 53 3.6 S 6 7 3 4 1010.0 1010.0 0.0
31/05:30am 9.6 5.9 -0.1 51 3.9 S 9 11 5 6 1009.8 - 0.0
31/05:00am 9.6 5.8 -0.4 49 4.0 S 9 9 5 5 1009.9 - 0.0
31/04:30am 9.6 7.6 -0.1 51 3.9 CALM 0 0 0 0 1010.0 - 0.0
31/04:00am 10.2 8.3 0.7 51 3.9 CALM 0 0 0 0 1010.2 - 0.0
31/03:30am 9.6 7.6 -0.4 49 4.0 CALM 0 0 0 0 1010.4 - 0.0
31/03:00am 11.2 8.8 -0.1 45 4.6 S 2 7 1 4 1010.5 1010.5 0.0
31/02:30am 11.0 7.9 0.3 47 4.4 S 6 7 3 4 1010.3 - 0.0
31/02:00am 11.8 8.6 0.5 46 4.7 S 7 7 4 4 1010.7 - 0.0
31/01:30am 12.3 9.3 0.6 44 4.9 S 6 7 3 4 1011.2 - 0.0
31/01:00am 12.7 10.9 1.2 45 4.9 CALM 0 6 0 3 1011.4 - 0.0
31/12:30am 14.0 10.6 -0.8 36 6.1 S 7 9 4 5 1011.4 - 0.0
31/12:00am 14.5 11.1 -0.6 35 6.3 S 7 9 4 5 1011.6 1011.6 0.0
 
Date/Time
EDT
Temp
°C
App
Temp
°C
Dew
Point
Rel
Hum
%
Delta-T
°C
Wind Press
QNH
hPa
Press
MSL
hPa
Rain
since 9 am
mm
Dir
 
Spd
km/h
Gust
km/h
Spd
kts
Gust
kts
30/11:30pm 16.0 12.2 -0.9 31 7.1 S 9 11 5 6 1011.8 - 0.0
30/11:00pm 15.5 12.2 0.0 34 6.6 S 7 9 4 5 1012.0 - 0.0
30/10:30pm 16.5 13.2 0.0 32 7.1 S 7 11 4 6 1012.1 - 0.0
30/10:00pm 18.2 14.8 -0.6 28 8.1 S 7 9 4 5 1012.1 - 0.0
30/09:30pm 19.6 15.7 -1.3 24 9.0 S 9 11 5 6 1011.9 - 0.0
30/09:00pm 21.2 16.8 -2.5 20 10.1 SSW 11 13 6 7 1012.0 1012.0 0.0
30/08:30pm 22.3 18.3 -2.1 19 10.6 SSW 9 13 5 7 1011.8 - 0.0
30/08:00pm 24.5 20.1 -2.7 16 11.9 SSW 11 17 6 9 1011.6 - 0.0
30/07:30pm 26.6 22.1 -3.5 13 13.2 SW 11 15 6 8 1011.3 - 0.0
30/07:00pm 27.7 22.3 -4.5 12 14.0 WSW 15 22 8 12 1011.3 - 0.0
30/06:30pm 28.2 22.0 -5.1 11 14.4 WSW 19 24 10 13 1011.2 - 0.0
30/06:00pm 29.0 22.7 -6.1 10 15.0 WSW 19 30 10 16 1011.2 1011.2 0.0
30/05:30pm 29.5 22.5 -6.8 9 15.4 W 22 32 12 17 1011.2 - 0.0
30/05:00pm 29.3 22.0 -6.3 9 15.2 W 24 35 13 19 1011.3 - 0.0
30/04:30pm 29.6 22.5 -4.1 11 15.0 W 24 33 13 18 1011.5 - 0.0
30/04:00pm 29.4 22.3 -4.2 11 14.9 W 24 37 13 20 1011.7 - 0.0
30/03:30pm 28.7 20.6 -3.1 12 14.3 W 30 39 16 21 1012.0 - 0.0
30/03:00pm 28.5 21.0 -1.7 14 13.9 W 28 39 15 21 1012.4 1012.3 0.0
30/02:30pm 28.8 22.1 -1.4 14 14.0 W 24 43 13 23 1012.7 - 0.0
30/02:00pm 27.6 20.9 -0.9 15 13.2 W 24 39 13 21 1013.0 - 0.0
30/01:30pm 27.4 20.7 -0.9 15 13.1 W 24 37 13 20 1013.2 - 0.0
30/01:00pm 27.7 20.4 -2.5 13 13.6 W 26 35 14 19 1013.6 - 0.0
30/12:30pm 26.6 20.1 0.1 17 12.4 NW 24 28 13 15 1013.7 - 0.0
30/12:00pm 25.6 20.2 2.5 22 11.2 W 20 30 11 16 1014.4 1014.3 0.0
30/11:30am 24.7 20.0 3.2 24 10.5 WNW 17 28 9 15 1014.8 - 0.0
30/11:00am 24.0 19.2 4.8 29 9.6 W 19 26 10 14 1015.1 - 0.0
30/10:30am 22.6 20.5 6.6 35 8.2 WSW 7 13 4 7 1015.4 - 0.0
30/10:00am 20.5 18.5 7.2 42 6.8 SW 7 11 4 6 1015.6 - 0.0
30/09:30am 19.3 17.5 8.1 48 5.8 SSE 7 11 4 6 1015.7 - 0.0
30/09:00am 17.6 15.4 7.8 52 5.0 SSE 9 13 5 7 1015.5 1015.7 0.0
30/08:30am 16.3 14.1 7.8 57 4.3 SSE 9 13 5 7 1015.5 - 0.0
30/08:00am 15.0 12.7 7.3 60 3.8 SSE 9 13 5 7 1015.2 - 0.0
30/07:30am 12.2 9.5 5.8 65 3.0 S 9 13 5 7 1015.4 - 0.0
30/07:00am 10.2 6.6 5.1 70 2.3 SSW 13 17 7 9 1015.5 - 0.0
30/06:30am 9.7 6.8 4.8 71 2.2 SW 9 13 5 7 1014.7 - 0.0
30/06:00am 10.1 6.9 5.0 70 2.3 SW 11 13 6 7 1014.3 1014.3 0.0
30/05:30am 10.8 7.6 4.9 67 2.7 SW 11 15 6 8 1014.1 - 0.0
30/05:00am 11.0 7.7 4.6 64 2.9 SW 11 15 6 8 1014.1 - 0.0
30/04:30am 11.1 8.2 4.5 64 3.0 SW 9 13 5 7 1014.0 - 0.0
30/04:00am 12.1 9.2 4.4 59 3.5 WSW 9 11 5 6 1014.0 - 0.0
30/03:30am 12.4 8.9 3.7 55 3.9 WSW 11 13 6 7 1014.3 - 0.0
30/03:00am 12.4 10.7 1.7 48 4.6 CALM 0 0 0 0 1014.3 1014.3 0.0
30/02:30am 12.3 10.6 2.1 49 4.4 CALM 0 0 0 0 1014.4 - 0.0
30/02:00am 12.4 11.2 4.8 60 3.5 CALM 0 2 0 1 1014.4 - 0.0
30/01:30am 13.4 11.2 3.4 50 4.5 W 4 7 2 4 1014.7 - 0.0
30/01:00am 14.8 13.1 3.9 48 5.0 W 2 7 1 4 1014.9 - 0.0
30/12:30am 14.5 12.5 4.6 51 4.6 W 4 6 2 3 1015.1 - 0.0
30/12:00am 14.1 11.4 3.5 49 4.8 W 7 7 4 4 1015.3 1015.4 0.0
 
Date/Time
EDT
Temp
°C
App
Temp
°C
Dew
Point
Rel
Hum
%
Delta-T
°C
Wind Press
QNH
hPa
Press
MSL
hPa
Rain
since 9 am
mm
Dir
 
Spd
km/h
Gust
km/h
Spd
kts
Gust
kts
29/11:30pm 14.0 11.4 3.4 49 4.8 W 6 7 3 4 1015.3 - 0.0
29/11:00pm 15.1 12.2 2.6 43 5.6 W 7 11 4 6 1015.4 - 0.0
29/10:30pm 14.7 13.4 4.1 49 4.9 CALM 0 0 0 0 1015.1 - 0.0
29/10:00pm 15.6 14.1 2.8 42 5.8 CALM 0 0 0 0 1015.3 - 0.0
29/09:30pm 17.4 16.3 5.1 44 5.9 CALM 0 0 0 0 1015.2 - 0.0
29/09:00pm 18.8 17.0 5.3 41 6.6 W 4 7 2 4 1015.2 1015.3 0.0
29/08:30pm 21.1 17.8 2.6 29 8.7 W 9 11 5 6 1015.2 - 0.0
29/08:00pm 20.9 16.8 2.3 29 8.7 W 13 15 7 8 1015.0 - 0.0
29/07:30pm 24.0 18.6 1.5 23 10.6 WSW 19 24 10 13 1014.7 - 0.0
29/07:00pm 25.1 19.5 1.1 20 11.3 WSW 20 24 11 13 1014.6 - 0.0
29/06:30pm 25.9 20.4 0.9 19 11.8 W 19 24 10 13 1014.5 - 0.0

Other Formats:

Comma delimited format used in spreadsheet applications
http://www.bom.gov.au/fwo/IDN60801/IDN60801.94843.axf

JavaScript Object Notation format (JSON) in row-major order
http://www.bom.gov.au/fwo/IDN60801/IDN60801.94843.json